Time;durP1;ratioP1;P1;durP2;ratioP2;P2;SDS_P1;SDS_P2;PMS_P1;PMS_P2;Temp;Humidity;BMP_temperature;BMP_pressure;BME280_temperature;BME280_humidity;BME280_pressure;Samples;Min_cycle;Max_cycle;Signal;HPM_P1;HPM_P2
2022/01/05 00:02:05;;;;;;;1.27;0.70;;;4.00;99.90;;;;;;4966793;28;20035;-68
2022/01/05 00:04:32;;;;;;;0.82;0.80;;;3.90;99.90;;;;;;4970999;28;20023;-69
2022/01/05 00:06:57;;;;;;;1.75;0.95;;;4.00;99.90;;;;;;4972465;28;20025;-69
2022/01/05 00:09:23;;;;;;;1.60;0.70;;;3.90;99.90;;;;;;4971295;28;20035;-69
2022/01/05 00:11:49;;;;;;;1.27;0.80;;;3.90;99.90;;;;;;4969038;28;20042;-69
2022/01/05 00:14:15;;;;;;;2.05;0.43;;;3.90;99.90;;;;;;4972021;28;20050;-69
2022/01/05 00:16:41;;;;;;;0.60;0.30;;;4.00;99.90;;;;;;4971351;28;20030;-69
2022/01/05 00:19:06;;;;;;;2.97;0.45;;;4.10;99.90;;;;;;4972740;28;20023;-69
2022/01/05 00:21:32;;;;;;;0.30;0.30;;;4.00;99.90;;;;;;4970739;28;20038;-69
2022/01/05 00:23:58;;;;;;;0.52;0.40;;;4.00;99.90;;;;;;4971752;28;20027;-68
2022/01/05 00:26:25;;;;;;;0.95;0.40;;;4.10;99.90;;;;;;4970831;28;20420;-68
2022/01/05 00:28:51;;;;;;;1.20;0.38;;;4.20;99.90;;;;;;4968003;28;20047;-68
2022/01/05 00:31:16;;;;;;;0.20;0.20;;;4.20;99.90;;;;;;4968849;28;20105;-68
2022/01/05 00:33:42;;;;;;;0.40;0.30;;;4.10;99.90;;;;;;4971598;28;20046;-68
2022/01/05 00:36:08;;;;;;;0.68;0.38;;;4.10;99.90;;;;;;4966795;28;20439;-68
2022/01/05 00:38:34;;;;;;;0.45;0.30;;;4.10;99.90;;;;;;4968885;28;20484;-68
2022/01/05 00:41:00;;;;;;;0.45;0.20;;;4.20;99.90;;;;;;4971211;28;20062;-68
2022/01/05 00:43:26;;;;;;;0.50;0.32;;;4.20;99.90;;;;;;4969008;28;20054;-68
2022/01/05 00:45:52;;;;;;;0.73;0.30;;;4.10;99.90;;;;;;4970257;28;20034;-68
2022/01/05 00:48:18;;;;;;;0.50;0.30;;;4.10;99.90;;;;;;4971485;28;20110;-68
2022/01/05 00:50:43;;;;;;;0.35;0.30;;;4.10;99.90;;;;;;4968400;28;20074;-68
2022/01/05 00:53:09;;;;;;;0.45;0.40;;;4.10;99.90;;;;;;4971826;28;20022;-67
2022/01/05 00:55:35;;;;;;;0.30;0.20;;;4.10;99.90;;;;;;4970872;28;20168;-68
2022/01/05 00:58:00;;;;;;;0.60;0.20;;;4.10;99.90;;;;;;4970879;28;20552;-68
2022/01/05 01:00:26;;;;;;;0.20;0.20;;;4.10;99.90;;;;;;4971436;28;20473;-68
2022/01/05 01:02:51;;;;;;;1.10;0.20;;;4.00;99.90;;;;;;4971912;28;20097;-67
2022/01/05 01:05:17;;;;;;;0.20;0.10;;;4.00;99.90;;;;;;4971798;28;20478;-68
2022/01/05 01:07:44;;;;;;;0.80;0.17;;;4.00;99.90;;;;;;4968016;28;20529;-68
2022/01/05 01:10:10;;;;;;;1.17;0.15;;;4.00;99.90;;;;;;4971629;28;20085;-68
2022/01/05 01:12:36;;;;;;;0.20;0.20;;;3.90;99.90;;;;;;4970482;28;20039;-68
2022/01/05 01:15:07;;;;;;;0.60;0.20;;;4.00;99.90;;;;;;4971182;28;20552;-67
2022/01/05 01:17:33;;;;;;;0.20;0.10;;;4.10;99.90;;;;;;4970808;28;20404;-67
2022/01/05 01:19:59;;;;;;;0.30;0.17;;;4.10;99.90;;;;;;4972138;28;20031;-67
2022/01/05 01:22:28;;;;;;;0.25;0.10;;;4.20;99.90;;;;;;4969133;28;20113;-67
2022/01/05 01:24:53;;;;;;;0.15;0.00;;;4.20;99.90;;;;;;4971267;28;20089;-68
2022/01/05 01:27:19;;;;;;;0.25;0.10;;;4.20;99.90;;;;;;4970849;28;20371;-68
2022/01/05 01:29:45;;;;;;;0.20;0.17;;;4.30;99.90;;;;;;4968538;28;20034;-67
2022/01/05 01:32:11;;;;;;;0.30;0.10;;;4.30;99.90;;;;;;4971472;28;20027;-67
2022/01/05 01:34:36;;;;;;;0.13;0.10;;;4.30;99.90;;;;;;4965244;28;20023;-67
2022/01/05 01:37:02;;;;;;;0.20;0.10;;;4.30;99.90;;;;;;4971185;28;20477;-68
2022/01/05 01:39:28;;;;;;;0.20;0.10;;;4.30;99.90;;;;;;4970467;28;20027;-68
2022/01/05 01:41:54;;;;;;;0.10;0.10;;;4.30;99.90;;;;;;4968817;28;20038;-67
2022/01/05 01:44:19;;;;;;;0.55;0.10;;;4.30;99.90;;;;;;4968731;28;20106;-68
2022/01/05 01:46:45;;;;;;;0.45;0.10;;;4.40;99.90;;;;;;4971519;28;20031;-67
2022/01/05 01:49:11;;;;;;;0.20;0.10;;;4.40;99.90;;;;;;4970820;28;20483;-67
2022/01/05 01:51:36;;;;;;;0.08;0.00;;;4.40;99.90;;;;;;4971201;28;20054;-67
2022/01/05 01:54:03;;;;;;;0.40;0.10;;;4.40;99.90;;;;;;4972277;28;20046;-67
2022/01/05 01:56:33;;;;;;;0.40;0.20;;;4.40;99.90;;;;;;4973572;28;20031;-67
2022/01/05 01:59:02;;;;;;;0.27;0.10;;;4.40;99.90;;;;;;4975463;28;20534;-67
2022/01/05 02:01:28;;;;;;;0.20;0.10;;;4.50;99.90;;;;;;4975044;28;20027;-67
2022/01/05 02:03:53;;;;;;;0.55;0.10;;;4.50;99.90;;;;;;4975973;28;20046;-67
2022/01/05 02:06:19;;;;;;;0.52;0.10;;;4.50;99.90;;;;;;4975602;28;20484;-68
2022/01/05 02:08:45;;;;;;;0.00;0.00;;;4.60;99.90;;;;;;4975289;28;20039;-68
2022/01/05 02:11:13;;;;;;;0.65;0.20;;;4.60;99.90;;;;;;4976305;28;20031;-68
2022/01/05 02:13:39;;;;;;;0.00;0.00;;;4.60;99.90;;;;;;4974242;28;20056;-69
2022/01/05 02:16:05;;;;;;;0.20;0.10;;;4.70;99.90;;;;;;4976290;28;20111;-68
2022/01/05 02:21:08;;;;;;;0.65;0.10;;;4.70;99.90;;;;;;4975198;28;20034;-69
2022/01/05 02:23:35;;;;;;;0.20;0.20;;;4.80;99.90;;;;;;4974247;28;20034;-69
2022/01/05 02:26:03;;;;;;;0.35;0.20;;;4.70;99.90;;;;;;4975387;28;20105;-68
2022/01/05 02:28:29;;;;;;;2.25;0.20;;;4.70;99.90;;;;;;4974154;28;20046;-68
2022/01/05 02:30:55;;;;;;;0.52;0.20;;;4.70;99.90;;;;;;4974971;28;20487;-68
2022/01/05 02:33:21;;;;;;;0.30;0.10;;;4.70;99.90;;;;;;4957405;28;20027;-69
2022/01/05 02:35:47;;;;;;;0.22;0.20;;;4.70;99.90;;;;;;4974700;28;20042;-69
2022/01/05 02:38:21;;;;;;;0.10;0.10;;;4.80;99.90;;;;;;4974777;28;20042;-68
2022/01/05 02:40:47;;;;;;;0.20;0.10;;;4.80;99.90;;;;;;4957269;28;20023;-69
2022/01/05 02:43:13;;;;;;;0.50;0.15;;;4.80;99.90;;;;;;4974687;28;20042;-69
2022/01/05 02:45:39;;;;;;;0.20;0.20;;;4.80;99.90;;;;;;4956282;28;20111;-68
2022/01/05 02:48:05;;;;;;;0.68;0.10;;;4.80;99.90;;;;;;4975241;28;20086;-68
2022/01/05 02:50:31;;;;;;;0.30;0.15;;;4.80;99.90;;;;;;4973717;28;20066;-68
2022/01/05 02:52:57;;;;;;;1.13;0.20;;;4.80;99.90;;;;;;4975078;28;20027;-68
2022/01/05 02:55:23;;;;;;;3.03;0.20;;;4.90;99.90;;;;;;4973987;28;20037;-68
2022/01/05 02:57:49;;;;;;;0.15;0.10;;;5.00;99.90;;;;;;4974492;28;20054;-68
2022/01/05 03:00:16;;;;;;;0.35;0.20;;;5.00;99.90;;;;;;4974520;28;20065;-68
2022/01/05 03:02:43;;;;;;;1.85;0.22;;;5.00;99.90;;;;;;4974507;28;20031;-68
2022/01/05 03:05:09;;;;;;;0.60;0.28;;;5.00;99.90;;;;;;4974649;28;20038;-68
2022/01/05 03:07:39;;;;;;;0.20;0.15;;;5.00;99.90;;;;;;4973440;28;20027;-68
2022/01/05 03:10:07;;;;;;;0.75;0.20;;;5.00;99.90;;;;;;4974866;28;20030;-68
2022/01/05 03:12:32;;;;;;;0.25;0.20;;;5.00;99.90;;;;;;4973497;28;20054;-68
2022/01/05 03:14:58;;;;;;;0.70;0.30;;;4.90;99.90;;;;;;4958470;28;20413;-68
2022/01/05 03:17:24;;;;;;;0.47;0.32;;;4.90;99.90;;;;;;4954389;29;20070;-68
2022/01/05 03:19:49;;;;;;;0.20;0.20;;;4.80;99.90;;;;;;4955053;29;20465;-68
2022/01/05 03:22:15;;;;;;;0.22;0.20;;;4.80;99.90;;;;;;4955064;29;20460;-68
2022/01/05 03:24:41;;;;;;;0.10;0.10;;;4.70;99.90;;;;;;4954701;29;20031;-68
2022/01/05 03:27:06;;;;;;;0.20;0.20;;;4.80;99.90;;;;;;4955515;29;20031;-68
2022/01/05 03:29:32;;;;;;;0.10;0.10;;;4.80;99.90;;;;;;4954712;29;20118;-68
2022/01/05 03:31:59;;;;;;;0.77;0.20;;;4.90;99.90;;;;;;4954836;29;20358;-68
2022/01/05 03:34:24;;;;;;;0.75;0.10;;;4.80;99.90;;;;;;4953712;29;20035;-69
2022/01/05 03:36:51;;;;;;;1.20;0.10;;;4.80;99.90;;;;;;4954987;29;20461;-68
2022/01/05 03:39:16;;;;;;;2.67;0.28;;;4.80;99.90;;;;;;4955106;29;20110;-68
2022/01/05 03:41:42;;;;;;;0.90;0.10;;;4.80;99.90;;;;;;4954115;29;20110;-68
2022/01/05 03:44:08;;;;;;;0.13;0.10;;;4.80;99.90;;;;;;4955131;29;20041;-68
2022/01/05 03:46:34;;;;;;;0.05;0.00;;;4.90;99.90;;;;;;4953861;29;20032;-68
2022/01/05 03:49:00;;;;;;;0.35;0.00;;;4.80;99.90;;;;;;4954860;29;20424;-68
2022/01/05 03:51:26;;;;;;;1.00;0.20;;;4.90;99.90;;;;;;4953617;29;20043;-69
2022/01/05 03:53:51;;;;;;;0.10;0.10;;;4.90;99.90;;;;;;4954637;29;20023;-68
2022/01/05 03:56:17;;;;;;;0.15;0.10;;;4.90;99.90;;;;;;4954590;29;20376;-68
2022/01/05 03:58:44;;;;;;;0.10;0.10;;;4.90;99.90;;;;;;4953568;29;20038;-68
2022/01/05 04:01:09;;;;;;;0.00;0.00;;;5.00;99.90;;;;;;4954206;29;20098;-68
2022/01/05 04:03:35;;;;;;;0.08;0.08;;;5.00;99.90;;;;;;4953844;29;20465;-68
2022/01/05 04:06:01;;;;;;;0.15;0.15;;;5.00;99.90;;;;;;4953990;29;20027;-68
2022/01/05 04:08:27;;;;;;;0.10;0.00;;;5.00;99.90;;;;;;4953570;29;20039;-68
2022/01/05 04:10:52;;;;;;;1.55;0.10;;;5.00;99.90;;;;;;4954511;29;20110;-68
2022/01/05 04:13:19;;;;;;;0.30;0.05;;;5.00;99.90;;;;;;4939493;28;20437;-68
2022/01/05 04:15:44;;;;;;;0.75;0.17;;;5.00;99.90;;;;;;4972717;28;20065;-68
2022/01/05 04:18:10;;;;;;;0.10;0.08;;;5.00;99.90;;;;;;4973244;28;20110;-68
2022/01/05 04:20:36;;;;;;;0.10;0.10;;;5.00;99.90;;;;;;4972175;28;20037;-68
2022/01/05 04:23:01;;;;;;;0.20;0.10;;;5.00;99.90;;;;;;4971001;28;20042;-68
2022/01/05 04:25:27;;;;;;;0.10;0.00;;;4.90;99.90;;;;;;4953519;29;20023;-68
2022/01/05 04:27:53;;;;;;;0.00;0.00;;;4.90;99.90;;;;;;4954188;29;20047;-68
2022/01/05 04:30:18;;;;;;;0.10;0.00;;;4.90;99.90;;;;;;4954117;29;20381;-68
2022/01/05 04:32:44;;;;;;;0.10;0.00;;;5.00;99.90;;;;;;4957325;28;20098;-68
2022/01/05 04:35:13;;;;;;;0.22;0.10;;;5.00;99.90;;;;;;4973172;28;20445;-68
2022/01/05 04:37:40;;;;;;;0.03;0.03;;;5.00;99.90;;;;;;4973477;28;20035;-68
2022/01/05 04:40:06;;;;;;;0.20;0.10;;;4.90;99.90;;;;;;4974378;28;20018;-68
2022/01/05 04:42:32;;;;;;;0.63;0.17;;;4.80;99.90;;;;;;4972112;28;20118;-69
2022/01/05 04:44:58;;;;;;;0.00;0.00;;;4.80;99.90;;;;;;4973206;28;20131;-71
2022/01/05 04:47:23;;;;;;;1.85;0.15;;;4.70;99.90;;;;;;4972393;28;20035;-69
2022/01/05 04:49:49;;;;;;;0.90;0.30;;;4.60;99.90;;;;;;4972697;28;20110;-68
2022/01/05 04:52:15;;;;;;;0.10;0.10;;;4.60;99.90;;;;;;4973119;28;20118;-68
2022/01/05 04:54:40;;;;;;;0.10;0.10;;;4.60;99.90;;;;;;4973267;28;20105;-69
2022/01/05 04:57:06;;;;;;;1.05;0.10;;;4.60;99.90;;;;;;4972952;28;20110;-68
2022/01/05 04:59:33;;;;;;;0.10;0.10;;;4.50;99.90;;;;;;4971814;28;20035;-69
2022/01/05 05:01:59;;;;;;;0.85;0.40;;;4.40;99.90;;;;;;4973133;28;20093;-69
2022/01/05 05:04:24;;;;;;;0.10;0.10;;;4.30;99.90;;;;;;4972469;28;20027;-69
2022/01/05 05:06:50;;;;;;;0.20;0.10;;;4.30;99.90;;;;;;4972367;28;20118;-69
2022/01/05 05:09:17;;;;;;;1.65;0.20;;;4.30;99.90;;;;;;4972787;28;20388;-69
2022/01/05 05:11:43;;;;;;;1.30;0.20;;;4.20;99.90;;;;;;4954968;28;20046;-70
2022/01/05 05:14:10;;;;;;;0.95;0.20;;;4.10;99.90;;;;;;4963481;28;20051;-69
2022/01/05 05:16:35;;;;;;;2.35;0.10;;;4.10;99.90;;;;;;4952560;29;20039;-68
2022/01/05 05:19:01;;;;;;;0.60;0.10;;;4.10;99.90;;;;;;4953391;29;20481;-68
2022/01/05 05:21:27;;;;;;;0.63;0.20;;;4.10;99.90;;;;;;4952799;29;20067;-68
2022/01/05 05:23:52;;;;;;;0.17;0.17;;;4.20;99.90;;;;;;4953655;29;20039;-68
2022/01/05 05:26:18;;;;;;;0.10;0.10;;;4.10;99.90;;;;;;4952793;29;20031;-68
2022/01/05 05:28:43;;;;;;;0.30;0.10;;;4.30;99.90;;;;;;4952840;29;20647;-68
2022/01/05 05:31:09;;;;;;;1.13;0.40;;;4.00;99.90;;;;;;4955722;28;20535;-68
2022/01/05 05:33:35;;;;;;;1.50;0.40;;;3.50;99.90;;;;;;4956460;29;20036;-68
2022/01/05 05:36:02;;;;;;;0.28;0.28;;;3.10;99.90;;;;;;4957147;29;20100;-68
2022/01/05 05:38:28;;;;;;;0.95;0.50;;;2.70;99.90;;;;;;4956483;29;20035;-68
2022/01/05 05:40:54;;;;;;;1.25;0.50;;;2.40;99.90;;;;;;4956739;29;20046;-68
2022/01/05 05:43:20;;;;;;;0.65;0.63;;;2.20;99.90;;;;;;4956513;29;20476;-68
2022/01/05 05:45:45;;;;;;;0.68;0.60;;;2.00;99.90;;;;;;4955926;29;20042;-68
2022/01/05 05:48:11;;;;;;;2.30;0.98;;;1.80;99.90;;;;;;4956861;29;20385;-68
2022/01/05 05:50:37;;;;;;;1.00;0.82;;;1.70;99.90;;;;;;4956069;29;20035;-68
2022/01/05 05:53:03;;;;;;;1.02;0.65;;;1.70;99.90;;;;;;4957027;29;20488;-68
2022/01/05 05:55:28;;;;;;;1.05;0.70;;;1.60;99.90;;;;;;4955724;29;20035;-69
2022/01/05 05:57:54;;;;;;;2.30;0.88;;;1.50;99.90;;;;;;4956441;29;20485;-68
2022/01/05 06:00:21;;;;;;;1.17;0.88;;;1.40;99.90;;;;;;4956512;29;20043;-68
2022/01/05 06:02:47;;;;;;;1.75;1.17;;;1.40;99.90;;;;;;4955708;29;20035;-68
2022/01/05 06:05:14;;;;;;;1.13;0.75;;;1.40;99.90;;;;;;4955483;29;20046;-68
2022/01/05 06:07:39;;;;;;;2.15;1.10;;;1.40;99.90;;;;;;4955507;29;20071;-68
2022/01/05 06:10:05;;;;;;;1.73;1.20;;;1.30;99.90;;;;;;4939467;29;20063;-68
2022/01/05 06:12:31;;;;;;;3.30;1.42;;;1.30;99.90;;;;;;4954211;29;20031;-68
2022/01/05 06:14:57;;;;;;;2.30;1.35;;;1.40;99.90;;;;;;4971852;28;20074;-68
2022/01/05 06:17:23;;;;;;;1.52;1.33;;;1.40;99.90;;;;;;4975933;28;20046;-68
2022/01/05 06:19:49;;;;;;;3.38;1.25;;;1.40;99.90;;;;;;4974641;28;20113;-68
2022/01/05 06:22:15;;;;;;;1.60;1.45;;;1.40;99.90;;;;;;4975709;28;20555;-68
2022/01/05 06:24:42;;;;;;;1.85;1.52;;;1.50;99.90;;;;;;4974242;28;20472;-68
2022/01/05 06:27:09;;;;;;;1.45;1.33;;;1.50;99.90;;;;;;4975595;28;20038;-69
2022/01/05 06:29:36;;;;;;;1.85;1.48;;;1.60;99.90;;;;;;4974775;28;20472;-68
2022/01/05 06:32:03;;;;;;;5.18;1.80;;;1.60;99.90;;;;;;4958326;28;20037;-68
2022/01/05 06:34:29;;;;;;;2.28;1.83;;;1.60;99.90;;;;;;4974557;28;20041;-68
2022/01/05 06:36:54;;;;;;;1.67;1.58;;;1.60;99.90;;;;;;4975190;28;20101;-68
2022/01/05 06:39:20;;;;;;;3.33;1.67;;;1.70;99.90;;;;;;4975385;28;20035;-68
2022/01/05 06:41:45;;;;;;;2.22;1.05;;;1.70;99.90;;;;;;4956719;28;20090;-68
2022/01/05 06:44:11;;;;;;;1.90;1.35;;;1.90;99.90;;;;;;4975803;28;20050;-68
2022/01/05 06:46:37;;;;;;;1.10;0.95;;;1.90;99.90;;;;;;4973103;28;20039;-68
2022/01/05 06:49:03;;;;;;;2.33;1.40;;;1.90;99.90;;;;;;4974535;28;20039;-68
2022/01/05 06:51:29;;;;;;;3.83;1.55;;;1.90;99.90;;;;;;4975003;28;20081;-68
2022/01/05 06:53:55;;;;;;;3.33;1.23;;;1.90;99.90;;;;;;4974636;28;20106;-68
2022/01/05 06:56:20;;;;;;;4.38;1.20;;;1.80;99.90;;;;;;4974645;28;20055;-68
2022/01/05 06:58:46;;;;;;;2.25;1.40;;;1.80;99.90;;;;;;4954996;29;20039;-68
2022/01/05 07:01:12;;;;;;;3.28;1.60;;;1.60;99.90;;;;;;4955476;29;20086;-68
2022/01/05 07:03:37;;;;;;;3.35;1.48;;;1.50;99.90;;;;;;4969015;28;20058;-68
2022/01/05 07:06:04;;;;;;;4.65;1.75;;;1.50;99.90;;;;;;4974599;28;20448;-68
2022/01/05 07:08:30;;;;;;;3.17;1.63;;;1.50;99.90;;;;;;4974100;28;20034;-69
2022/01/05 07:10:56;;;;;;;3.03;1.65;;;1.50;99.90;;;;;;4974511;28;20035;-69
2022/01/05 07:13:22;;;;;;;2.40;1.65;;;1.60;99.90;;;;;;4973912;28;20082;-69
2022/01/05 07:15:49;;;;;;;3.92;1.60;;;1.60;99.90;;;;;;4974013;28;20043;-69
2022/01/05 07:18:15;;;;;;;2.92;1.35;;;1.50;99.90;;;;;;4974351;28;20030;-69
2022/01/05 07:20:40;;;;;;;4.32;1.40;;;1.50;99.90;;;;;;4973006;28;20109;-68
2022/01/05 07:23:06;;;;;;;4.07;1.10;;;1.50;99.90;;;;;;4974299;28;20106;-68
2022/01/05 07:25:32;;;;;;;1.80;1.42;;;1.60;99.90;;;;;;4973801;28;20027;-68
2022/01/05 07:27:57;;;;;;;2.88;1.15;;;1.50;99.90;;;;;;4974446;28;20116;-68
2022/01/05 07:30:23;;;;;;;1.63;0.90;;;1.60;99.90;;;;;;4954899;28;20038;-68
2022/01/05 07:32:49;;;;;;;1.50;1.10;;;1.70;99.90;;;;;;4979858;28;20034;-68
2022/01/05 07:35:15;;;;;;;3.80;1.70;;;1.80;99.90;;;;;;4978766;28;20030;-69
2022/01/05 07:37:40;;;;;;;2.97;0.77;;;1.80;99.90;;;;;;4973045;28;20030;-69
2022/01/05 07:40:07;;;;;;;7.53;1.48;;;1.80;99.90;;;;;;4973634;28;20027;-70
2022/01/05 07:42:34;;;;;;;1.05;0.90;;;1.80;99.90;;;;;;4955663;28;20468;-69
2022/01/05 07:45:08;;;;;;;3.08;1.08;;;1.80;99.90;;;;;;4972325;28;20447;-68
2022/01/05 07:47:34;;;;;;;5.40;1.10;;;1.80;99.90;;;;;;4972427;28;20443;-67
2022/01/05 07:50:00;;;;;;;1.90;1.05;;;1.90;99.90;;;;;;4973038;28;20133;-67
2022/01/05 07:52:25;;;;;;;7.85;1.20;;;1.80;99.90;;;;;;4973234;28;20102;-67
2022/01/05 07:54:52;;;;;;;9.90;1.55;;;1.70;99.90;;;;;;4954217;28;20122;-68
2022/01/05 07:57:18;;;;;;;4.10;1.50;;;1.70;99.90;;;;;;4973505;28;20031;-67
2022/01/05 07:59:44;;;;;;;7.90;1.40;;;1.80;99.90;;;;;;4972868;28;20507;-67
2022/01/05 08:02:10;;;;;;;4.65;1.20;;;1.80;99.90;;;;;;4973485;28;20031;-68
2022/01/05 08:04:36;;;;;;;6.82;1.50;;;1.80;99.90;;;;;;4970951;28;20038;-67
2022/01/05 08:07:02;;;;;;;3.78;1.48;;;1.70;99.90;;;;;;4964416;28;20034;-67
2022/01/05 08:09:29;;;;;;;5.50;1.60;;;1.70;99.90;;;;;;4973812;28;20043;-67
2022/01/05 08:11:56;;;;;;;6.82;1.58;;;1.70;99.90;;;;;;4973353;28;20042;-67
2022/01/05 08:14:21;;;;;;;6.57;2.35;;;1.70;99.90;;;;;;4972968;28;20109;-67
2022/01/05 08:16:47;;;;;;;6.20;2.20;;;1.70;99.90;;;;;;4972320;28;20106;-67
2022/01/05 08:19:13;;;;;;;9.80;2.20;;;1.60;99.90;;;;;;4972729;28;20070;-67
2022/01/05 08:21:38;;;;;;;6.50;2.63;;;1.60;99.90;;;;;;4971970;28;20031;-67
2022/01/05 08:24:04;;;;;;;14.05;2.40;;;1.50;99.90;;;;;;4972696;28;20038;-68
2022/01/05 08:26:30;;;;;;;2.35;1.85;;;1.60;99.90;;;;;;4972772;28;20460;-67
2022/01/05 08:28:56;;;;;;;5.53;2.35;;;1.60;99.90;;;;;;4972148;28;20026;-67
2022/01/05 08:31:22;;;;;;;7.78;2.25;;;1.60;99.90;;;;;;4972474;28;20034;-67
2022/01/05 08:33:48;;;;;;;9.70;2.13;;;1.60;99.90;;;;;;4971119;28;20030;-67
2022/01/05 08:36:14;;;;;;;11.45;1.98;;;1.70;99.90;;;;;;4982690;28;20364;-67
2022/01/05 08:38:40;;;;;;;5.70;1.70;;;1.60;99.90;;;;;;4990003;28;20798;-67
2022/01/05 08:41:05;;;;;;;4.25;1.45;;;1.60;99.90;;;;;;4973045;28;20085;-67
2022/01/05 08:43:33;;;;;;;4.60;1.35;;;1.60;99.90;;;;;;4972543;28;20122;-67
2022/01/05 08:45:59;;;;;;;4.43;1.67;;;1.70;99.90;;;;;;4971136;28;20128;-67
2022/01/05 08:48:24;;;;;;;3.08;1.67;;;1.60;99.90;;;;;;4972633;28;20468;-67
2022/01/05 08:50:51;;;;;;;6.45;1.70;;;1.50;99.90;;;;;;4971822;28;20031;-68
2022/01/05 08:53:17;;;;;;;5.68;2.58;;;1.50;99.90;;;;;;4972388;28;20034;-67
2022/01/05 08:55:46;;;;;;;8.00;1.90;;;1.50;99.90;;;;;;4971188;28;20041;-67
2022/01/05 08:58:14;;;;;;;7.82;1.60;;;1.50;99.90;;;;;;4972835;28;20034;-67
2022/01/05 09:00:39;;;;;;;4.60;1.52;;;1.50;99.90;;;;;;4970919;28;20118;-67
2022/01/05 09:03:06;;;;;;;9.82;2.05;;;1.40;99.90;;;;;;4972556;28;20162;-67
2022/01/05 09:05:32;;;;;;;4.05;1.90;;;1.50;99.90;;;;;;4971662;28;20042;-67
2022/01/05 09:07:59;;;;;;;6.10;1.58;;;1.50;99.90;;;;;;4975813;28;20031;-67
2022/01/05 09:10:25;;;;;;;6.78;1.60;;;1.60;99.90;;;;;;4976480;28;20031;-67
2022/01/05 09:12:50;;;;;;;4.65;1.80;;;1.60;99.90;;;;;;4975295;28;20038;-67
2022/01/05 09:15:16;;;;;;;11.32;3.35;;;1.70;99.90;;;;;;4957789;28;20063;-67
2022/01/05 09:17:42;;;;;;;11.88;2.17;;;1.70;99.90;;;;;;4956066;29;20027;-67
2022/01/05 09:20:08;;;;;;;6.90;1.77;;;1.80;99.90;;;;;;4957254;29;20489;-67
2022/01/05 09:22:38;;;;;;;6.55;1.70;;;1.90;99.90;;;;;;4956473;29;20373;-67
2022/01/05 09:25:09;;;;;;;7.25;1.80;;;1.90;99.90;;;;;;4956302;29;20031;-67
2022/01/05 09:27:36;;;;;;;6.88;1.55;;;1.90;99.90;;;;;;4956520;29;20388;-67
2022/01/05 09:30:04;;;;;;;4.68;1.65;;;2.10;99.90;;;;;;4955909;29;20484;-67
2022/01/05 09:32:30;;;;;;;7.65;1.52;;;2.20;99.90;;;;;;4956096;29;20075;-66
2022/01/05 09:34:56;;;;;;;6.38;2.00;;;2.30;99.90;;;;;;4955897;29;20035;-66
2022/01/05 09:37:26;;;;;;;5.38;1.40;;;2.30;99.90;;;;;;4975129;28;20023;-67
2022/01/05 09:42:38;;;;;;;9.93;1.52;;;2.40;99.90;;;;;;4956470;29;20487;-67
2022/01/05 09:45:24;;;;;;;7.85;1.60;;;2.40;99.90;;;;;;4955616;29;20047;-67
2022/01/05 09:48:23;;;;;;;5.78;1.50;;;2.40;99.90;;;;;;4948255;29;20469;-67
2022/01/05 09:50:59;;;;;;;7.43;1.80;;;2.50;99.90;;;;;;4955722;29;20117;-67
2022/01/05 09:53:26;;;;;;;6.60;2.05;;;2.50;99.90;;;;;;4956012;29;20269;-67
2022/01/05 09:55:52;;;;;;;6.50;1.67;;;2.50;99.90;;;;;;4953831;29;20107;-67
2022/01/05 09:58:20;;;;;;;5.72;1.63;;;2.40;99.90;;;;;;4956156;29;20035;-66
2022/01/05 10:00:47;;;;;;;7.05;1.42;;;2.40;99.90;;;;;;4954185;29;20037;-67
2022/01/05 10:03:14;;;;;;;15.45;1.88;;;2.30;99.90;;;;;;4955539;29;20247;-67
2022/01/05 10:05:41;;;;;;;7.35;2.10;;;2.30;99.90;;;;;;4961066;28;20023;-67
2022/01/05 10:08:07;;;;;;;12.40;1.88;;;2.30;99.90;;;;;;4955153;28;20035;-66
2022/01/05 10:10:32;;;;;;;10.60;1.73;;;2.30;99.90;;;;;;4955363;29;20090;-67
2022/01/05 10:12:58;;;;;;;10.07;1.77;;;2.30;99.90;;;;;;4954584;29;20031;-67
2022/01/05 10:15:26;;;;;;;7.70;1.55;;;2.40;99.90;;;;;;4974280;28;20051;-67
2022/01/05 10:18:12;;;;;;;8.80;1.70;;;2.30;99.90;;;;;;4973218;28;20030;-67
2022/01/05 10:20:54;;;;;;;8.88;1.75;;;2.40;99.90;;;;;;4975108;28;20027;-67
2022/01/05 10:23:37;;;;;;;10.05;1.55;;;2.40;99.90;;;;;;4975346;28;20101;-66
2022/01/05 10:26:31;;;;;;;5.57;1.33;;;2.30;99.90;;;;;;4973865;28;20035;-66
2022/01/05 10:29:05;;;;;;;7.63;1.40;;;2.30;99.90;;;;;;4973581;28;20472;-66
2022/01/05 10:31:35;;;;;;;7.15;1.45;;;2.30;99.90;;;;;;4974056;28;20039;-66
2022/01/05 10:34:18;;;;;;;14.60;2.15;;;2.20;99.90;;;;;;4973485;28;20035;-66
2022/01/05 10:36:59;;;;;;;5.88;1.40;;;2.10;99.90;;;;;;4955926;28;20395;-67
2022/01/05 10:39:38;;;;;;;19.63;2.00;;;2.10;99.90;;;;;;4974972;28;20041;-67
2022/01/05 10:42:12;;;;;;;11.33;2.10;;;2.20;99.90;;;;;;4974012;28;20038;-67
2022/01/05 10:44:41;;;;;;;7.10;1.30;;;2.10;99.90;;;;;;4974238;28;20038;-67
2022/01/05 10:47:07;;;;;;;8.98;1.80;;;2.20;99.90;;;;;;4973793;28;20030;-67
2022/01/05 10:49:34;;;;;;;10.23;1.70;;;2.20;99.90;;;;;;4974221;28;20031;-67
2022/01/05 10:52:22;;;;;;;6.35;1.33;;;2.20;99.90;;;;;;4973798;28;20041;-67
2022/01/05 10:54:48;;;;;;;5.90;1.60;;;2.30;99.90;;;;;;4969766;28;20510;-67
2022/01/05 10:57:14;;;;;;;10.57;2.00;;;2.30;99.90;;;;;;4974319;28;20023;-67
2022/01/05 10:59:43;;;;;;;15.13;1.48;;;2.40;99.90;;;;;;4974084;28;20034;-68
2022/01/05 11:02:30;;;;;;;6.68;1.58;;;2.60;99.90;;;;;;4972969;28;20046;-68
2022/01/05 11:05:08;;;;;;;12.02;1.42;;;2.80;99.90;;;;;;4973578;28;20034;-68
2022/01/05 11:07:39;;;;;;;5.25;1.30;;;2.90;99.90;;;;;;4974539;28;20034;-67
2022/01/05 11:10:09;;;;;;;9.35;1.95;;;3.00;99.90;;;;;;4973456;28;20062;-67
2022/01/05 11:12:36;;;;;;;8.50;1.55;;;2.90;99.90;;;;;;4974279;28;20031;-67
2022/01/05 11:15:28;;;;;;;8.68;1.52;;;2.70;99.90;;;;;;4957139;28;20380;-67
2022/01/05 11:18:17;;;;;;;6.47;1.63;;;2.60;99.90;;;;;;4954023;29;20023;-67
2022/01/05 11:20:46;;;;;;;8.38;1.38;;;2.60;99.90;;;;;;4954716;29;20046;-69
2022/01/05 11:23:12;;;;;;;6.88;1.40;;;2.60;99.90;;;;;;4954675;29;20027;-67
2022/01/05 11:25:40;;;;;;;10.82;2.05;;;2.60;99.90;;;;;;4954356;29;20031;-67
2022/01/05 11:28:06;;;;;;;5.80;1.85;;;2.70;99.90;;;;;;4953639;28;20206;-68
2022/01/05 11:30:33;;;;;;;9.20;2.35;;;2.70;99.90;;;;;;4953871;29;20062;-67
2022/01/05 11:33:00;;;;;;;9.43;2.08;;;2.70;99.90;;;;;;4953507;29;20469;-67
2022/01/05 11:35:26;;;;;;;10.82;1.73;;;2.80;99.90;;;;;;4959090;29;20024;-67
2022/01/05 11:37:52;;;;;;;7.32;1.83;;;2.90;99.90;;;;;;4955572;29;20027;-68
2022/01/05 11:40:19;;;;;;;6.70;1.50;;;2.90;99.90;;;;;;4954401;29;20068;-67
2022/01/05 11:42:48;;;;;;;9.27;2.50;;;3.20;99.90;;;;;;4934716;29;20027;-67
2022/01/05 11:45:31;;;;;;;9.98;1.80;;;3.40;99.90;;;;;;4941326;29;20500;-67
2022/01/05 11:48:15;;;;;;;12.75;2.58;;;3.70;99.90;;;;;;4953600;29;20549;-67
2022/01/05 11:50:56;;;;;;;10.05;1.67;;;3.80;99.90;;;;;;4954404;29;20042;-67
2022/01/05 11:53:40;;;;;;;8.55;1.70;;;3.90;99.90;;;;;;4954590;29;20031;-67
2022/01/05 11:56:18;;;;;;;9.50;1.30;;;3.90;99.90;;;;;;4953153;29;20026;-67
2022/01/05 11:59:03;;;;;;;11.48;1.88;;;3.90;99.90;;;;;;4954008;29;20062;-67
2022/01/05 12:01:56;;;;;;;10.30;1.67;;;3.80;99.00;;;;;;4952507;29;20055;-67
2022/01/05 12:04:22;;;;;;;14.85;1.83;;;3.70;99.90;;;;;;4953969;29;20106;-67
2022/01/05 12:06:48;;;;;;;8.88;2.42;;;3.60;99.40;;;;;;4953427;29;20159;-67
2022/01/05 12:09:25;;;;;;;7.60;1.52;;;3.50;99.30;;;;;;4953498;29;20035;-67
2022/01/05 12:11:51;;;;;;;9.13;2.15;;;3.50;99.90;;;;;;4953209;29;20031;-67
2022/01/05 12:14:20;;;;;;;10.20;1.67;;;3.50;99.90;;;;;;4946431;28;20484;-67
2022/01/05 12:17:06;;;;;;;5.72;1.30;;;3.60;99.70;;;;;;4972816;28;20122;-67
2022/01/05 12:19:55;;;;;;;10.73;3.10;;;3.70;99.90;;;;;;4973244;28;20093;-67
2022/01/05 12:22:26;;;;;;;8.65;1.70;;;3.70;99.90;;;;;;4962122;28;20373;-67
2022/01/05 12:25:06;;;;;;;9.98;1.90;;;3.70;99.50;;;;;;4950481;29;20114;-67
2022/01/05 12:27:51;;;;;;;8.10;1.80;;;3.60;99.90;;;;;;4953870;29;20051;-67
2022/01/05 12:30:17;;;;;;;7.25;1.63;;;3.60;99.70;;;;;;4953202;29;20054;-67
2022/01/05 12:32:44;;;;;;;11.40;1.80;;;3.50;99.90;;;;;;4953256;29;20074;-67
2022/01/05 12:35:19;;;;;;;9.40;1.42;;;3.60;99.70;;;;;;4953049;29;20023;-67
2022/01/05 12:37:58;;;;;;;11.57;2.28;;;3.60;97.90;;;;;;4941226;28;20039;-67
2022/01/05 12:40:42;;;;;;;10.38;1.70;;;3.60;98.40;;;;;;4952764;28;20098;-67
2022/01/05 12:43:08;;;;;;;11.45;2.13;;;3.50;99.90;;;;;;4952739;29;20035;-67
2022/01/05 12:45:54;;;;;;;11.98;1.77;;;3.40;98.80;;;;;;4959247;28;20142;-67
2022/01/05 12:48:32;;;;;;;10.93;1.40;;;3.40;99.90;;;;;;4972834;28;20030;-67
2022/01/05 12:51:22;;;;;;;9.52;1.90;;;3.30;99.20;;;;;;4972078;28;20030;-67
2022/01/05 12:53:56;;;;;;;8.20;1.67;;;3.30;99.70;;;;;;4936318;28;20484;-67
2022/01/05 12:56:25;;;;;;;7.38;1.60;;;3.20;99.90;;;;;;4949081;29;20472;-67
2022/01/05 12:58:52;;;;;;;5.72;1.98;;;3.20;99.90;;;;;;4952460;29;20036;-67
2022/01/05 13:01:22;;;;;;;6.05;1.13;;;3.20;99.90;;;;;;4958669;28;20478;-67
2022/01/05 13:03:48;;;;;;;7.95;1.50;;;3.20;98.90;;;;;;4953144;28;20039;-67
2022/01/05 13:06:28;;;;;;;9.90;1.60;;;3.20;99.90;;;;;;4944681;28;20079;-67